Time;durP1;ratioP1;P1;durP2;ratioP2;P2;SDS_P1;SDS_P2;PMS_P1;PMS_P2;Temp;Humidity;BMP_temperature;BMP_pressure;BME280_temperature;BME280_humidity;BME280_pressure;Samples;Min_cycle;Max_cycle;Signal;HPM_P1;HPM_P2
2021/09/30 00:03:56;;;;;;;5.93;1.13;;;;;;;15.24;53.67;98857.03;8448311;28;20498;-64
2021/09/30 00:07:58;;;;;;;3.53;1.10;;;;;;;15.17;53.61;98852.19;8449368;28;20198;-64
2021/09/30 00:12:08;;;;;;;7.10;1.23;;;;;;;15.14;53.50;98854.97;8449406;28;20206;-64
2021/09/30 00:16:32;;;;;;;3.50;1.27;;;;;;;15.07;53.43;98854.41;8449744;28;20490;-64
2021/09/30 00:33:46;;;;;;;2.80;1.10;;;;;;;14.92;53.25;98850.75;8449152;28;20380;-64
2021/09/30 00:42:20;;;;;;;4.00;1.00;;;;;;;14.95;52.70;98858.47;8448902;28;20233;-64
2021/09/30 00:46:27;;;;;;;3.43;1.10;;;;;;;14.98;52.54;98865.28;8448868;28;20198;-64
2021/09/30 00:50:38;;;;;;;2.73;1.00;;;;;;;14.76;52.62;98875.91;8448683;28;20212;-64
2021/09/30 02:18:23;;;;;;;2.97;0.93;;;;;;;14.31;53.16;98918.75;8452654;28;20209;-64
2021/09/30 02:22:44;;;;;;;2.63;1.10;;;;;;;14.32;53.47;98918.69;8452362;28;20230;-63
2021/09/30 03:02:08;;;;;;;3.83;1.20;;;;;;;14.05;53.83;98954.56;8451079;28;20269;-64
2021/09/30 03:06:12;;;;;;;4.60;2.10;;;;;;;14.01;54.16;98968.66;8451152;28;20503;-64
2021/09/30 03:10:15;;;;;;;1.97;1.20;;;;;;;14.03;54.42;98966.81;8450936;28;20205;-64
2021/09/30 03:14:20;;;;;;;3.63;1.30;;;;;;;14.00;54.46;98965.19;8450771;28;20214;-64
2021/09/30 03:18:30;;;;;;;3.07;1.30;;;;;;;13.92;54.80;98976.84;8450955;28;20520;-64
2021/09/30 03:22:33;;;;;;;6.03;1.40;;;;;;;13.86;54.43;98978.81;8449567;28;20202;-64
2021/09/30 03:26:36;;;;;;;3.17;1.30;;;;;;;13.92;54.36;98982.91;8450624;28;20355;-64
2021/09/30 03:30:40;;;;;;;3.40;1.33;;;;;;;13.73;54.72;98980.22;8450413;28;20206;-64
2021/09/30 03:34:46;;;;;;;4.93;1.40;;;;;;;13.64;54.97;98975.38;8450208;28;20218;-64
2021/09/30 03:38:52;;;;;;;3.23;1.50;;;;;;;13.59;55.07;98972.97;8450220;28;20205;-64
2021/09/30 03:42:55;;;;;;;3.70;1.50;;;;;;;13.62;54.62;98982.41;8450122;28;20226;-64
2021/09/30 03:46:59;;;;;;;4.13;1.13;;;;;;;13.64;54.71;98980.59;8450020;28;20494;-64
2021/09/30 03:51:09;;;;;;;3.03;1.40;;;;;;;13.55;54.59;98991.38;8449841;28;20198;-64
2021/09/30 03:55:27;;;;;;;4.40;1.50;;;;;;;13.54;54.75;98995.75;8449750;28;20210;-64
2021/09/30 03:59:30;;;;;;;7.30;1.57;;;;;;;13.51;54.75;98993.25;8449581;28;20205;-64
2021/09/30 04:03:34;;;;;;;4.50;1.50;;;;;;;13.45;54.73;98996.94;8449784;28;20222;-64
2021/09/30 04:07:39;;;;;;;6.03;1.70;;;;;;;13.46;54.69;98997.78;8449476;28;20205;-64
2021/09/30 04:11:42;;;;;;;6.47;1.60;;;;;;;13.36;54.95;99005.09;8449516;28;20204;-64
2021/09/30 04:15:46;;;;;;;3.40;1.43;;;;;;;13.33;55.06;98996.56;8449372;28;20202;-64
2021/09/30 04:19:51;;;;;;;4.00;1.50;;;;;;;13.37;55.10;99003.38;8448569;28;20222;-64
2021/09/30 04:23:54;;;;;;;4.83;2.00;;;;;;;13.28;54.81;99007.97;8448925;28;20400;-64
2021/09/30 04:27:57;;;;;;;5.60;1.70;;;;;;;13.22;55.50;99012.59;8449333;28;20209;-64
2021/09/30 04:31:59;;;;;;;4.47;1.90;;;;;;;13.27;55.12;99018.47;8451557;28;20385;-63
2021/09/30 04:36:04;;;;;;;4.67;1.67;;;;;;;13.22;55.16;99023.81;8455823;28;20233;-64
2021/09/30 04:40:08;;;;;;;3.90;1.77;;;;;;;13.04;55.00;99014.97;8454778;28;20217;-64
2021/09/30 04:44:11;;;;;;;4.37;1.90;;;;;;;13.02;55.64;99023.72;8455534;28;20234;-64
2021/09/30 04:48:14;;;;;;;7.00;3.23;;;;;;;13.35;55.05;99021.63;8455341;28;20213;-64
2021/09/30 04:52:20;;;;;;;6.07;2.17;;;;;;;13.22;55.18;99020.38;8455370;28;20198;-64
2021/09/30 04:56:23;;;;;;;4.73;2.10;;;;;;;13.18;54.98;99022.25;8454950;28;20241;-64
2021/09/30 05:00:27;;;;;;;4.57;1.90;;;;;;;13.10;54.94;99032.09;8455146;28;20392;-64
2021/09/30 05:04:29;;;;;;;5.27;1.80;;;;;;;13.13;54.82;99037.19;8455046;28;20240;-64
2021/09/30 05:08:34;;;;;;;6.13;1.90;;;;;;;13.04;54.85;99032.31;8454721;28;20198;-64
2021/09/30 05:12:38;;;;;;;4.10;2.03;;;;;;;12.87;55.60;99036.41;8454871;28;20271;-64
2021/09/30 05:16:41;;;;;;;3.03;1.60;;;;;;;12.86;55.70;99033.84;8454057;28;20508;-64
2021/09/30 05:20:44;;;;;;;3.70;2.20;;;;;;;12.90;55.17;99035.44;8453480;28;20205;-64
2021/09/30 05:24:48;;;;;;;7.03;2.27;;;;;;;12.93;55.36;99037.94;8453957;28;20541;-64
2021/09/30 05:28:51;;;;;;;7.33;1.90;;;;;;;12.99;55.35;99048.09;8453797;28;20203;-64
2021/09/30 05:32:55;;;;;;;6.97;1.90;;;;;;;12.99;55.19;99049.84;8453273;28;20225;-64
2021/09/30 05:36:58;;;;;;;5.43;2.27;;;;;;;13.03;55.86;99062.69;8453923;28;20390;-65
2021/09/30 05:41:05;;;;;;;6.10;2.57;;;;;;;13.01;55.02;99067.09;8453705;28;20221;-64
2021/09/30 05:45:10;;;;;;;6.13;2.40;;;;;;;12.91;55.53;99068.34;8452718;28;20226;-64
2021/09/30 05:49:13;;;;;;;6.57;2.33;;;;;;;12.90;55.67;99067.47;8453605;28;20205;-64
2021/09/30 05:53:16;;;;;;;5.80;2.47;;;;;;;13.09;55.54;99070.25;8453475;28;20199;-64
2021/09/30 05:57:26;;;;;;;8.43;2.20;;;;;;;13.44;54.54;99072.44;8453281;28;20241;-64
2021/09/30 06:01:55;;;;;;;5.93;2.60;;;;;;;13.60;53.83;99068.38;8453271;28;20202;-64
2021/09/30 06:14:41;;;;;;;5.43;2.07;;;;;;;14.04;52.80;99070.09;8452916;28;20493;-64
2021/09/30 06:18:43;;;;;;;7.40;2.37;;;;;;;13.99;52.79;99072.03;8452713;28;20198;-64
2021/09/30 06:22:46;;;;;;;5.87;2.57;;;;;;;14.14;52.78;99067.97;8452528;28;20217;-64
2021/09/30 06:26:49;;;;;;;6.80;2.30;;;;;;;14.12;52.88;99075.84;8452213;28;20407;-64
2021/09/30 06:30:55;;;;;;;5.60;2.33;;;;;;;14.15;52.73;99090.50;8452271;28;20426;-64
2021/09/30 06:34:58;;;;;;;4.03;1.90;;;;;;;14.39;52.41;99104.25;8452038;28;20226;-64
2021/09/30 06:39:02;;;;;;;7.53;2.30;;;;;;;15.43;54.20;99096.25;8452099;28;20195;-71
2021/09/30 06:43:05;;;;;;;9.00;2.00;;;;;;;15.65;50.58;99106.56;8451836;28;20202;-72
2021/09/30 06:47:09;;;;;;;4.97;2.03;;;;;;;16.08;51.54;99108.91;8451743;28;20226;-72
2021/09/30 06:51:12;;;;;;;3.83;1.80;;;;;;;16.19;51.88;99106.63;8451668;28;20209;-72
2021/09/30 06:55:15;;;;;;;5.10;2.30;;;;;;;15.36;49.31;99111.34;8451513;28;20225;-72
2021/09/30 06:59:20;;;;;;;6.57;2.23;;;;;;;15.76;49.04;99104.31;8451298;28;20198;-65
2021/09/30 07:03:24;;;;;;;6.47;2.57;;;;;;;14.83;50.91;99117.19;8451492;28;20206;-65
2021/09/30 07:07:28;;;;;;;5.13;2.10;;;;;;;15.09;50.59;99110.81;8451026;28;20222;-64
2021/09/30 07:11:31;;;;;;;4.87;2.20;;;;;;;15.15;50.41;99115.75;8451029;28;20198;-64
2021/09/30 07:15:33;;;;;;;5.73;2.27;;;;;;;15.24;50.77;99122.34;8450925;28;20213;-64
2021/09/30 07:19:39;;;;;;;5.27;2.13;;;;;;;15.46;49.86;99122.22;8450756;28;20209;-64
2021/09/30 07:23:42;;;;;;;5.13;2.10;;;;;;;15.66;49.89;99123.91;8450594;28;20220;-65
2021/09/30 07:27:45;;;;;;;4.00;1.73;;;;;;;15.81;49.78;99124.97;8450537;28;20232;-64
2021/09/30 07:31:49;;;;;;;4.00;1.57;;;;;;;15.99;49.14;99125.84;8450331;28;20210;-64
2021/09/30 07:35:53;;;;;;;3.53;1.83;;;;;;;16.20;49.13;99129.19;8450174;28;20229;-64
2021/09/30 07:39:56;;;;;;;4.57;1.70;;;;;;;16.57;48.72;99133.47;8449810;28;20198;-64
2021/09/30 07:43:59;;;;;;;5.37;1.60;;;;;;;16.89;47.46;99124.94;8450334;28;20493;-64
2021/09/30 07:48:02;;;;;;;5.97;1.80;;;;;;;16.86;46.85;99130.31;8449030;28;20194;-64
2021/09/30 07:52:06;;;;;;;4.13;2.17;;;;;;;17.02;46.94;99135.59;8449789;28;20205;-63
2021/09/30 07:56:10;;;;;;;5.97;2.10;;;;;;;17.32;46.06;99138.38;8449639;28;20238;-63
2021/09/30 08:00:13;;;;;;;4.13;1.60;;;;;;;17.48;45.22;99134.00;8449499;28;20202;-64
2021/09/30 08:04:16;;;;;;;6.27;1.60;;;;;;;17.69;44.73;99141.63;8449521;28;20198;-66
2021/09/30 08:08:21;;;;;;;4.70;1.53;;;;;;;18.28;43.36;99139.25;8448933;28;20415;-65
2021/09/30 08:12:25;;;;;;;3.87;1.50;;;;;;;18.35;42.70;99135.31;8449504;28;20202;-65
2021/09/30 08:16:28;;;;;;;5.17;1.77;;;;;;;18.90;42.08;99139.97;8449553;28;20202;-66
2021/09/30 08:20:41;;;;;;;5.37;1.60;;;;;;;18.98;41.31;99136.88;8449510;28;20209;-66
2021/09/30 08:24:45;;;;;;;6.17;1.83;;;;;;;19.43;40.71;99142.03;8449311;28;20245;-66
2021/09/30 08:28:50;;;;;;;4.30;1.60;;;;;;;19.16;40.86;99132.31;8449301;28;20198;-65
2021/09/30 08:32:53;;;;;;;3.93;1.57;;;;;;;19.80;39.83;99134.50;8449101;28;20225;-66
2021/09/30 08:36:57;;;;;;;4.87;1.30;;;;;;;20.15;39.36;99139.28;8449083;28;20203;-67
2021/09/30 08:41:02;;;;;;;4.50;1.70;;;;;;;20.31;38.64;99129.44;8448905;28;20482;-67
2021/09/30 08:45:06;;;;;;;4.20;1.50;;;;;;;20.28;37.89;99125.22;8448773;28;20241;-67
2021/09/30 08:49:09;;;;;;;5.33;1.47;;;;;;;20.57;37.25;99124.22;8449060;28;20206;-67
2021/09/30 08:53:13;;;;;;;3.77;1.43;;;;;;;20.73;36.84;99121.44;8448871;28;20199;-66
2021/09/30 08:57:17;;;;;;;3.80;1.77;;;;;;;20.94;36.37;99121.75;8448625;28;20576;-67
2021/09/30 09:01:20;;;;;;;6.67;1.70;;;;;;;21.27;37.01;99124.69;8448594;28;20205;-64
2021/09/30 09:05:24;;;;;;;4.83;1.80;;;;;;;21.11;35.83;99124.06;8448514;28;20412;-64
2021/09/30 09:09:28;;;;;;;5.30;1.60;;;;;;;20.92;36.67;99127.13;8448588;28;20206;-64
2021/09/30 09:13:33;;;;;;;4.93;1.67;;;;;;;21.88;34.83;99125.72;8448513;28;20201;-64
2021/09/30 09:17:49;;;;;;;6.77;1.23;;;;;;;20.48;36.24;99130.94;8448397;28;20275;-64
2021/09/30 09:21:51;;;;;;;5.23;1.90;;;;;;;21.86;33.58;99126.66;8454673;28;20201;-64
2021/09/30 09:26:07;;;;;;;4.67;1.20;;;;;;;22.56;32.45;99118.94;8454437;28;20416;-64
2021/09/30 09:30:29;;;;;;;11.80;1.80;;;;;;;21.75;32.08;99129.25;8454203;28;20201;-64
2021/09/30 09:34:36;;;;;;;7.13;1.87;;;;;;;21.51;32.45;99131.00;8453948;28;20224;-65
2021/09/30 09:38:50;;;;;;;8.03;1.20;;;;;;;21.77;32.55;99134.41;8453897;28;20196;-64
2021/09/30 09:42:53;;;;;;;5.90;1.50;;;;;;;21.52;32.96;99136.16;8453878;28;20206;-65
2021/09/30 09:46:57;;;;;;;4.70;1.50;;;;;;;22.20;33.22;99129.47;8453723;28;20424;-65
2021/09/30 09:51:02;;;;;;;12.43;1.40;;;;;;;22.59;32.70;99137.19;8453640;28;20259;-65
2021/09/30 09:55:10;;;;;;;7.40;1.40;;;;;;;22.74;30.40;99122.84;8453173;28;20202;-65
2021/09/30 09:59:13;;;;;;;3.37;1.10;;;;;;;22.76;30.59;99126.19;8386574;28;20209;-65
2021/09/30 10:03:19;;;;;;;6.17;1.60;;;;;;;22.91;30.48;99116.25;8386420;28;20501;-65
2021/09/30 10:07:22;;;;;;;5.37;1.43;;;;;;;22.19;31.12;99113.75;8386456;28;20228;-65
2021/09/30 10:11:29;;;;;;;4.57;1.33;;;;;;;22.78;31.19;99108.44;8385987;28;20206;-65
2021/09/30 10:15:32;;;;;;;5.37;1.40;;;;;;;22.81;30.90;99100.28;8385963;28;20208;-65
2021/09/30 10:19:38;;;;;;;5.47;1.20;;;;;;;23.03;29.14;99101.28;8386246;28;20210;-65
2021/09/30 10:23:41;;;;;;;4.73;1.47;;;;;;;22.65;31.05;99100.59;8385976;28;20210;-65
2021/09/30 10:27:54;;;;;;;5.13;1.60;;;;;;;22.90;30.96;99098.72;8385491;28;20309;-65
2021/09/30 10:31:58;;;;;;;4.13;1.20;;;;;;;23.14;30.03;99093.38;8385482;28;20210;-64
2021/09/30 10:36:02;;;;;;;5.80;1.57;;;;;;;22.92;30.44;99101.25;8385234;28;20234;-64
2021/09/30 10:40:23;;;;;;;5.17;1.63;;;;;;;21.62;31.56;99108.19;8385356;28;20502;-65
2021/09/30 10:44:30;;;;;;;4.37;1.30;;;;;;;21.07;32.20;99091.81;8385086;28;20230;-67
2021/09/30 10:48:40;;;;;;;4.53;1.23;;;;;;;20.56;32.33;99097.09;8384976;28;20237;-67
2021/09/30 10:52:55;;;;;;;4.63;1.20;;;;;;;20.35;31.47;99085.34;8384904;28;20297;-66
2021/09/30 10:56:58;;;;;;;4.30;1.30;;;;;;;20.16;32.56;99089.19;8399546;28;20256;-68
2021/09/30 11:01:01;;;;;;;5.60;1.20;;;;;;;19.92;33.67;99091.66;8417725;28;20199;-67
2021/09/30 11:05:08;;;;;;;3.73;1.33;;;;;;;19.78;33.01;99086.44;8417840;28;20368;-66
2021/09/30 11:09:20;;;;;;;4.47;1.20;;;;;;;19.66;33.04;99080.16;8424374;28;20195;-67
2021/09/30 11:13:29;;;;;;;3.23;1.27;;;;;;;19.70;34.03;99071.13;8450177;28;20203;-66
2021/09/30 11:17:36;;;;;;;4.57;1.23;;;;;;;19.42;34.85;99070.28;8450855;28;20208;-64
2021/09/30 11:21:46;;;;;;;3.70;1.40;;;;;;;20.36;33.56;99068.63;8450683;28;20274;-64
2021/09/30 11:26:11;;;;;;;3.73;1.67;;;;;;;20.91;32.17;99058.78;8450719;28;20413;-64
2021/09/30 11:30:23;;;;;;;3.93;1.13;;;;;;;21.25;31.38;99063.38;8450638;28;20198;-65
2021/09/30 11:34:27;;;;;;;6.57;1.30;;;;;;;21.39;30.49;99051.84;8450493;28;20563;-65
2021/09/30 11:38:31;;;;;;;5.77;1.23;;;;;;;21.66;30.80;99053.47;8450450;28;20208;-64
2021/09/30 11:42:38;;;;;;;2.17;0.90;;;;;;;21.72;28.59;99053.00;8449424;28;20403;-64
2021/09/30 11:46:42;;;;;;;2.77;1.00;;;;;;;21.87;28.73;99032.59;8449587;28;20230;-64
2021/09/30 11:50:46;;;;;;;3.33;1.10;;;;;;;21.47;28.78;99036.34;8449776;28;20259;-65
2021/09/30 11:54:50;;;;;;;4.87;1.03;;;;;;;20.49;28.71;99035.28;8448601;28;20198;-65
2021/09/30 11:59:02;;;;;;;3.20;0.90;;;;;;;21.05;29.13;99034.94;8449585;28;20238;-65
2021/09/30 12:03:06;;;;;;;3.63;1.03;;;;;;;21.34;27.94;99032.88;8449683;28;20207;-65
2021/09/30 12:07:15;;;;;;;5.00;1.17;;;;;;;21.63;28.75;99019.44;8449152;28;20457;-67
2021/09/30 12:11:18;;;;;;;5.50;1.30;;;;;;;21.52;28.38;99020.22;8449447;28;20515;-67
2021/09/30 12:15:25;;;;;;;3.00;1.23;;;;;;;21.82;28.82;99024.19;8449277;28;20206;-73
2021/09/30 12:19:29;;;;;;;3.17;1.10;;;;;;;21.86;28.44;99012.47;8449057;28;20208;-75
2021/09/30 12:23:32;;;;;;;5.63;1.20;;;;;;;21.99;28.04;99004.44;8448632;28;20190;-73
2021/09/30 12:27:38;;;;;;;4.07;1.30;;;;;;;21.54;27.95;99013.03;8446008;28;20300;-73
2021/09/30 12:31:45;;;;;;;3.17;1.10;;;;;;;20.42;29.13;99007.72;8446188;28;20208;-73
2021/09/30 12:35:48;;;;;;;3.63;1.07;;;;;;;20.39;30.80;99006.13;8445357;28;20253;-70
2021/09/30 12:40:00;;;;;;;2.87;1.17;;;;;;;20.25;31.77;98993.91;8444619;28;20277;-72
2021/09/30 12:44:12;;;;;;;4.30;1.17;;;;;;;20.30;31.90;99004.97;8445220;28;20218;-72
2021/09/30 12:48:22;;;;;;;3.97;0.93;;;;;;;21.11;30.51;99005.53;8443447;28;20235;-66
2021/09/30 12:52:25;;;;;;;3.60;1.00;;;;;;;20.25;30.91;98995.69;8445855;28;20204;-66
2021/09/30 12:56:29;;;;;;;5.10;1.10;;;;;;;20.08;31.66;98987.16;8453236;28;20234;-66
2021/09/30 13:00:35;;;;;;;2.60;0.90;;;;;;;19.87;32.35;98991.22;8455142;28;20215;-66
2021/09/30 13:04:52;;;;;;;4.27;1.10;;;;;;;19.86;32.19;98977.25;8455072;28;20550;-65
2021/09/30 13:08:55;;;;;;;4.40;1.03;;;;;;;19.63;32.09;98970.84;8454809;28;20230;-65
2021/09/30 13:13:02;;;;;;;2.87;0.90;;;;;;;19.71;32.67;98973.81;8454927;28;20199;-65
2021/09/30 13:17:15;;;;;;;3.13;1.20;;;;;;;19.65;32.30;98979.47;8454378;28;20206;-65
2021/09/30 13:21:20;;;;;;;3.20;1.00;;;;;;;19.56;33.57;98976.63;8454523;28;20214;-65
2021/09/30 13:25:26;;;;;;;6.93;1.23;;;;;;;19.61;32.71;98966.63;8453567;28;20207;-66
2021/09/30 13:29:31;;;;;;;3.70;1.43;;;;;;;19.50;32.61;98975.22;8454111;28;20525;-66
2021/09/30 13:33:34;;;;;;;3.43;1.10;;;;;;;19.63;33.25;98962.97;8453873;28;20393;-67
2021/09/30 13:37:38;;;;;;;3.83;1.17;;;;;;;19.55;32.98;98957.38;8454327;28;20216;-66
2021/09/30 13:41:41;;;;;;;3.03;1.27;;;;;;;19.90;33.23;98960.31;8451115;28;20390;-66
2021/09/30 13:45:44;;;;;;;3.40;1.10;;;;;;;19.59;33.38;98956.25;8452246;28;20190;-66
2021/09/30 13:49:47;;;;;;;3.23;1.07;;;;;;;19.50;34.05;98949.78;8452969;28;20544;-66
2021/09/30 13:53:51;;;;;;;4.43;1.50;;;;;;;20.48;32.27;98954.66;8452960;28;20415;-65
2021/09/30 13:57:54;;;;;;;2.80;1.10;;;;;;;20.57;31.14;98948.75;8453386;28;20470;-75
2021/09/30 14:01:57;;;;;;;3.83;1.00;;;;;;;20.79;30.71;98942.88;8454017;28;20209;-76
2021/09/30 14:06:01;;;;;;;2.57;0.90;;;;;;;20.27;31.76;98938.56;8451999;28;20194;-74
2021/09/30 14:10:08;;;;;;;3.20;0.87;;;;;;;19.99;31.17;98931.72;8451821;28;20526;-75
2021/09/30 14:14:11;;;;;;;2.50;0.80;;;;;;;20.10;31.62;98937.09;8449521;28;20262;-75
2021/09/30 14:18:14;;;;;;;2.77;1.20;;;;;;;19.75;32.85;98931.59;8451617;28;20217;-75
2021/09/30 14:22:16;;;;;;;6.33;1.07;;;;;;;19.83;31.37;98924.88;8451103;28;20198;-75
2021/09/30 14:26:21;;;;;;;3.60;0.80;;;;;;;20.01;30.46;98920.19;8451277;28;20258;-75
2021/09/30 14:30:24;;;;;;;2.47;0.97;;;;;;;20.02;30.59;98907.88;8450940;28;20191;-74
2021/09/30 14:34:46;;;;;;;3.70;1.00;;;;;;;19.91;29.70;98911.22;8449889;28;20211;-73
2021/09/30 14:38:49;;;;;;;3.90;1.27;;;;;;;19.77;29.95;98900.81;8451568;28;20483;-73
2021/09/30 14:42:54;;;;;;;4.37;1.00;;;;;;;19.53;31.59;98904.09;8451299;28;20202;-73
2021/09/30 14:46:57;;;;;;;2.80;0.90;;;;;;;19.58;31.91;98899.38;8448304;28;20218;-73
2021/09/30 14:51:07;;;;;;;4.77;1.00;;;;;;;19.95;31.11;98893.44;8451734;28;20195;-65
2021/09/30 14:55:10;;;;;;;4.07;0.80;;;;;;;20.10;29.21;98897.66;8451545;28;20198;-65
2021/09/30 14:59:15;;;;;;;4.60;1.30;;;;;;;20.03;29.99;98899.88;8451355;28;20239;-66
2021/09/30 15:03:17;;;;;;;3.70;1.20;;;;;;;19.94;30.57;98897.03;8450024;28;20202;-65
2021/09/30 15:07:22;;;;;;;2.00;0.90;;;;;;;19.77;30.65;98888.50;8450557;28;20227;-66
2021/09/30 15:11:25;;;;;;;12.70;1.57;;;;;;;19.68;30.55;98884.66;8450822;28;20198;-65
2021/09/30 15:15:30;;;;;;;1.57;0.80;;;;;;;19.71;29.87;98881.84;8450250;28;20204;-65
2021/09/30 15:19:37;;;;;;;7.27;1.37;;;;;;;19.77;31.12;98887.66;8450652;28;20200;-65
2021/09/30 15:23:40;;;;;;;3.00;1.20;;;;;;;19.55;29.56;98886.44;8450698;28;20397;-65
2021/09/30 15:27:43;;;;;;;3.30;1.10;;;;;;;19.43;30.81;98882.00;8450496;28;20228;-65
2021/09/30 15:31:47;;;;;;;3.67;0.90;;;;;;;19.40;31.58;98882.19;8450516;28;20199;-65
2021/09/30 15:35:51;;;;;;;3.33;0.90;;;;;;;19.23;31.60;98883.31;8450131;28;20244;-65
2021/09/30 15:39:54;;;;;;;3.03;0.87;;;;;;;19.10;32.54;98884.13;8450063;28;20202;-66
2021/09/30 15:43:57;;;;;;;1.83;0.70;;;;;;;18.99;32.44;98886.59;8450392;28;20205;-66
2021/09/30 15:48:02;;;;;;;1.30;0.70;;;;;;;18.89;33.09;98886.34;8449965;28;20229;-66
2021/09/30 15:52:07;;;;;;;2.77;0.87;;;;;;;18.78;33.08;98873.03;8449777;28;20524;-65
2021/09/30 15:56:10;;;;;;;4.40;0.90;;;;;;;18.71;33.96;98880.44;8449542;28;20253;-65
2021/09/30 16:00:16;;;;;;;4.00;0.90;;;;;;;18.56;33.39;98882.25;8449785;28;20202;-65
2021/09/30 16:04:20;;;;;;;5.53;1.07;;;;;;;18.48;33.89;98883.66;8449550;28;20207;-65
2021/09/30 16:08:23;;;;;;;2.87;0.80;;;;;;;18.35;34.99;98875.72;8449443;28;20517;-64
2021/09/30 16:12:26;;;;;;;2.77;1.00;;;;;;;18.29;34.42;98871.69;8449073;28;20205;-65
2021/09/30 16:16:29;;;;;;;6.37;1.23;;;;;;;18.22;35.25;98878.25;8449121;28;20202;-65
2021/09/30 16:20:33;;;;;;;5.93;1.60;;;;;;;18.22;36.75;98882.63;8449001;28;20209;-66
2021/09/30 16:24:36;;;;;;;5.33;1.90;;;;;;;18.11;36.80;98884.16;8449279;28;20405;-65
2021/09/30 16:28:39;;;;;;;6.07;2.27;;;;;;;18.05;37.21;98881.91;8452388;28;20226;-65
2021/09/30 16:32:43;;;;;;;7.13;6.00;;;;;;;17.93;38.73;98883.50;8455751;28;20214;-65
2021/09/30 16:36:48;;;;;;;6.73;4.13;;;;;;;17.86;38.85;98883.91;8455873;28;20198;-66
2021/09/30 16:40:51;;;;;;;4.43;2.63;;;;;;;17.82;38.94;98880.63;8455001;28;20402;-65
2021/09/30 16:44:54;;;;;;;2.97;1.87;;;;;;;17.71;38.47;98867.34;8455172;28;20195;-65
2021/09/30 16:48:57;;;;;;;2.07;1.00;;;;;;;17.67;37.50;98865.81;8455590;28;20559;-65
2021/09/30 16:53:01;;;;;;;3.07;1.13;;;;;;;17.53;38.93;98872.69;8455377;28;20199;-65
2021/09/30 16:57:04;;;;;;;2.50;1.03;;;;;;;17.44;38.67;98873.25;8454896;28;20464;-65
2021/09/30 17:01:13;;;;;;;8.60;1.40;;;;;;;17.33;40.48;98868.63;8455491;28;20270;-65
2021/09/30 17:05:17;;;;;;;6.03;1.70;;;;;;;17.29;40.26;98874.16;8455410;28;20244;-65
2021/09/30 17:09:22;;;;;;;3.67;1.50;;;;;;;17.20;39.37;98876.34;8454871;28;20296;-64
2021/09/30 17:13:25;;;;;;;5.87;1.80;;;;;;;17.10;40.07;98871.72;8454920;28;20199;-64
2021/09/30 17:17:28;;;;;;;4.63;2.67;;;;;;;17.04;41.71;98870.31;8454722;28;20205;-65
2021/09/30 17:21:31;;;;;;;13.60;8.23;;;;;;;16.95;43.13;98882.13;8454615;28;20209;-64
2021/09/30 17:25:35;;;;;;;21.97;14.93;;;;;;;16.95;44.75;98891.75;8454483;28;20209;-65
2021/09/30 17:29:38;;;;;;;15.00;9.50;;;;;;;16.86;45.06;98894.88;8454426;28;20226;-64
2021/09/30 17:33:41;;;;;;;6.77;4.80;;;;;;;16.83;45.70;98895.91;8454024;28;20222;-64
2021/09/30 17:37:46;;;;;;;8.83;4.20;;;;;;;16.77;45.59;98889.19;8454076;28;20198;-65
2021/09/30 17:41:53;;;;;;;10.10;7.53;;;;;;;16.69;45.17;98890.53;8452781;28;20210;-65
2021/09/30 17:45:56;;;;;;;17.37;7.27;;;;;;;16.69;45.81;98890.53;8454022;28;20490;-64
2021/09/30 17:49:59;;;;;;;18.63;15.53;;;;;;;16.58;46.05;98888.50;8453552;28;20229;-64
2021/09/30 17:54:02;;;;;;;19.53;17.43;;;;;;;16.51;46.30;98900.22;8453542;28;20209;-64
2021/09/30 17:58:06;;;;;;;20.70;18.07;;;;;;;16.44;45.96;98899.69;8453425;28;20233;-64
2021/09/30 18:02:09;;;;;;;12.63;9.83;;;;;;;16.34;45.87;98906.34;8453276;28;20198;-64
2021/09/30 18:06:12;;;;;;;13.50;8.03;;;;;;;16.22;46.32;98900.84;8453020;28;20203;-65
2021/09/30 18:10:15;;;;;;;16.17;8.83;;;;;;;16.20;47.17;98904.44;8452936;28;20290;-64
2021/09/30 18:14:20;;;;;;;16.33;6.80;;;;;;;16.23;47.00;98905.13;8452746;28;20232;-64
2021/09/30 18:18:23;;;;;;;11.93;6.20;;;;;;;16.19;47.41;98908.00;8452383;28;20201;-64
2021/09/30 18:22:28;;;;;;;70.37;55.23;;;;;;;16.18;47.81;98907.16;8452627;28;20198;-64
2021/09/30 18:26:33;;;;;;;23.53;17.23;;;;;;;16.09;47.86;98888.47;8452530;28;20210;-64
2021/09/30 18:30:40;;;;;;;9.03;5.83;;;;;;;16.07;47.87;98888.59;8452242;28;20226;-64
2021/09/30 18:34:43;;;;;;;9.87;5.37;;;;;;;16.09;47.90;98898.94;8451898;28;20218;-64
2021/09/30 18:38:46;;;;;;;11.47;6.10;;;;;;;16.05;48.26;98900.91;8451952;28;20202;-65
2021/09/30 18:42:49;;;;;;;14.17;9.40;;;;;;;15.98;48.56;98895.13;8452058;28;20504;-64
2021/09/30 18:46:53;;;;;;;23.60;15.07;;;;;;;16.00;48.55;98888.06;8452107;28;20213;-64
2021/09/30 18:50:56;;;;;;;23.07;16.00;;;;;;;16.01;48.88;98891.50;8451523;28;20222;-64
2021/09/30 18:54:59;;;;;;;17.73;11.97;;;;;;;16.00;48.33;98895.88;8451985;28;20206;-64
2021/09/30 18:59:02;;;;;;;13.57;5.33;;;;;;;16.03;47.92;98892.28;8451591;28;20238;-65
2021/09/30 19:03:06;;;;;;;9.53;5.23;;;;;;;16.04;48.59;98896.56;8451316;28;20206;-65
2021/09/30 19:07:10;;;;;;;13.30;5.50;;;;;;;15.98;48.45;98894.28;8451254;28;20198;-64
2021/09/30 19:11:13;;;;;;;8.00;3.90;;;;;;;16.02;48.60;98885.38;8451094;28;20559;-64
2021/09/30 19:15:17;;;;;;;8.17;5.03;;;;;;;15.99;48.52;98889.00;8451262;28;20206;-64
2021/09/30 19:19:21;;;;;;;9.27;4.90;;;;;;;15.97;48.75;98890.84;8450787;28;20202;-65
2021/09/30 19:23:24;;;;;;;8.77;5.20;;;;;;;15.95;48.02;98886.59;8450971;28;20377;-64
2021/09/30 19:27:27;;;;;;;6.53;4.87;;;;;;;15.86;48.51;98879.22;8450631;28;20198;-64
2021/09/30 19:31:30;;;;;;;11.53;5.70;;;;;;;15.88;48.25;98875.63;8450469;28;20222;-64
2021/09/30 19:35:36;;;;;;;8.27;4.93;;;;;;;15.92;49.11;98877.16;8450140;28;20225;-64
2021/09/30 19:39:39;;;;;;;19.50;6.63;;;;;;;15.92;49.60;98881.56;8450162;28;20209;-64
2021/09/30 19:43:42;;;;;;;9.73;7.20;;;;;;;15.88;49.42;98880.00;8450222;28;20198;-64
2021/09/30 19:47:45;;;;;;;10.57;6.67;;;;;;;15.85;49.43;98883.63;8450445;28;20369;-64
2021/09/30 19:51:49;;;;;;;8.97;5.73;;;;;;;15.90;49.12;98878.19;8449975;28;20393;-64
2021/09/30 19:55:52;;;;;;;10.50;6.13;;;;;;;15.81;49.34;98875.09;8449553;28;20198;-64
2021/09/30 19:59:55;;;;;;;8.50;5.47;;;;;;;15.71;48.85;98870.41;8449746;28;20206;-64
2021/09/30 20:03:58;;;;;;;8.83;5.13;;;;;;;15.70;47.95;98866.94;8449087;28;20217;-64
2021/09/30 20:08:03;;;;;;;11.60;5.03;;;;;;;15.71;48.62;98863.41;8449542;28;20210;-64
2021/09/30 20:12:07;;;;;;;11.13;5.67;;;;;;;15.62;48.17;98863.88;8449666;28;20229;-64
2021/09/30 20:16:13;;;;;;;8.97;5.57;;;;;;;15.66;48.22;98865.41;8449681;28;20405;-64
2021/09/30 20:20:18;;;;;;;9.93;5.00;;;;;;;15.67;48.40;98853.19;8449633;28;20271;-64
2021/09/30 20:24:22;;;;;;;8.47;4.80;;;;;;;15.68;48.03;98860.09;8449446;28;20202;-64
2021/09/30 20:28:25;;;;;;;9.10;4.73;;;;;;;15.60;48.41;98856.13;8449381;28;20208;-64
2021/09/30 20:32:29;;;;;;;8.00;4.90;;;;;;;15.49;48.51;98853.19;8449077;28;20226;-64
2021/09/30 20:36:33;;;;;;;7.00;4.13;;;;;;;15.53;48.72;98864.34;8449317;28;20517;-64
2021/09/30 20:40:38;;;;;;;12.73;4.80;;;;;;;15.50;48.89;98861.88;8449086;28;20202;-64
2021/09/30 20:44:42;;;;;;;6.93;3.97;;;;;;;15.49;48.58;98852.34;8449275;28;20199;-64
2021/09/30 20:48:45;;;;;;;7.77;4.53;;;;;;;15.38;48.98;98861.59;8449092;28;20380;-64
2021/09/30 20:52:47;;;;;;;5.60;4.00;;;;;;;15.36;49.77;98852.97;8448969;28;20281;-64
2021/09/30 20:56:52;;;;;;;7.17;4.20;;;;;;;15.39;49.49;98862.41;8448490;28;20226;-63
2021/09/30 21:00:56;;;;;;;8.10;4.30;;;;;;;15.20;49.91;98858.09;8448739;28;20216;-63
2021/09/30 21:04:59;;;;;;;9.03;4.37;;;;;;;15.14;49.89;98849.75;8448769;28;20513;-63
2021/09/30 21:09:02;;;;;;;6.70;4.07;;;;;;;15.05;49.97;98853.63;8449478;28;20198;-63
2021/09/30 21:13:07;;;;;;;7.43;4.13;;;;;;;15.13;50.10;98848.88;8449217;28;20199;-63
2021/09/30 21:17:10;;;;;;;9.70;6.20;;;;;;;15.01;50.68;98847.72;8454983;28;20205;-63
2021/09/30 21:21:15;;;;;;;7.37;4.20;;;;;;;14.99;50.87;98846.94;8453853;28;20269;-64
2021/09/30 21:25:18;;;;;;;5.60;3.60;;;;;;;14.95;50.52;98840.19;8453791;28;20190;-64
2021/09/30 21:29:23;;;;;;;7.13;3.60;;;;;;;14.95;50.68;98847.19;8453460;28;20218;-63
2021/09/30 21:33:26;;;;;;;4.63;3.03;;;;;;;14.86;50.75;98846.69;8453263;28;20237;-63
2021/09/30 21:37:29;;;;;;;7.03;3.00;;;;;;;14.79;50.87;98844.44;8453397;28;20402;-63